YBCSYBHM

Guest
Details From YBCS - Cairns Intl
To YBHM - Hamilton I.
Flight Number -
Tags generated
Created
Modified
Stats Distance 278 nm / 516 km
Max Altitude 29,300 ft / 8,931 m
Waypoints 4
Social Downloads 1
Likes 0
Share VATSIM

Download

Looking for another format? Having issues loading an existing format? Contact us
Advertisement - Login to hide

Notes

Basic altitude profile: - Ascent Rate: 2500ft/min - Ascent Speed: 250kts - Cruise Altitude: 320ft - Cruise Speed: 420kts - Descent Rate: 1500ft/min - Descent Speed: 250kts Options: - Use NATs: yes - Use PACOTS: yes - Use low airways: yes - Use high airways: yes

Route

YBCS SWALO Q26 HM YBHM

ID Type Via Altitude Latitude Longitude Leg Dist Tot Dist Heading (true) Name
O YBCS APT - 0 ft / 0 m -16.88108˚ 145.75260˚ - 0 nm - Cairns Intl
SWALO FIX - 29,300 ft / 8,931 m -17.78681˚ 146.82758˚ 82 nm 82 nm 132° / 131° -
HM VOR Q26 (AWY-LO) 17,000 ft / 5,182 m -20.35111˚ 148.95583˚ 195 nm 277 nm 142° / 142° HAMILTON ISLAND VOR-DME
O YBHM APT - 0 ft / 0 m -20.35748˚ 148.95164˚ 0 nm 278 nm 212° / 212° Hamilton I.

Altitude Profile

Advertisement - Login to hide

Weather


0- 5 10 15 20 25 30 35+ Temperature / ° C

Clouds and Precipitation
Forecast for 2017-12-17 00:00 UTC. Updated 2 hours ago

Ground ~20,000 ft ~40,000 ft Winds

YBCS

Details ICAO YBCS (CNS)
Name Cairns Intl
Region Australia
Timezone Australia/Brisbane (UTC+10.0)
Stats Elevation 10 ft / 3 m (AMSL)
Location -16.881079° 145.752598°
Runways 2
Magnetic Variation 6.715° E

METAR

YBCS 162230Z 16008KT 9999 SCT026 29/22 Q1011 INTER 2300/2400 4000 -SHRA BKN020

Decode

TAF

TAF YBCS 161704Z 1618/1718 16008KT 9999 SCT025 FM170100 10012KT 9999 FEW030 FM170800 16008KT 9999 SCT025 INTER 1618/1622 4000 -SHRA BKN020

Decode

Departure Runways

ID Width Length Bearing (true) Bearing (mag) Surface Threshold Offset Overrun Length
12 62 ft / 19 m 3,045 ft / 928 m 125.77° 119.06° Asphalt 0 ft / 0 m 0 ft / 0 m
15 148 ft / 45 m 10,522 ft / 3,207 m 156.60° 149.89° Asphalt 0 ft / 0 m 328 ft / 100 m
30 62 ft / 19 m 3,045 ft / 928 m 305.77° 299.06° Asphalt 0 ft / 0 m 0 ft / 0 m
33 148 ft / 45 m 10,522 ft / 3,207 m 336.60° 329.89° Asphalt 0 ft / 0 m 0 ft / 0 m

YBHM

Details ICAO YBHM (HTI)
Name Hamilton I.
Region Australia
Timezone Australia/Lindeman (UTC+10.0)
Stats Elevation 14 ft / 4 m (AMSL)
Location -20.357481° 148.951639°
Runways 1
Magnetic Variation 8.157° E

METAR

YBHM 162230Z AUTO 12019KT 9999 // SCT031 28/20 Q1013

Decode

TAF

Not found

Destination Runways

ID Width Length Bearing (true) Bearing (mag) Surface Threshold Offset Overrun Length
14 148 ft / 45 m 5,792 ft / 1,765 m 143.04° 134.88° Asphalt 0 ft / 0 m 0 ft / 0 m
32 148 ft / 45 m 5,792 ft / 1,765 m 323.03° 314.87° Asphalt 0 ft / 0 m 0 ft / 0 m

Popular Alternatives